Cardiff Trader — 9HA3356 — position and weather

sailwx.info

Track history (hours):
 
Tides and Currents Weather Stations Pressure Air Temp Water Temp Dewpoint Dewpoint Depression Visibility Wind Speed Wind Dir Waves Ship Positions

Cardiff Trader

Last reported at 2018-Feb-09 01:30 UTC. Time now 2018-Feb-23 12:42 UTC.
Position N 28°31' W 116°06'.
Warning: this ship's position is 14 days out of date.

Length 208 m; draft 8.1 m.

Type: Ship (hazmat cat A). MMSI: 229469000.

Date/timePositionNaut miles runAvg speedWind from/ knotsBaromVisibWave heightAir tempDewpointWater temp
2018-Feb-09 01:30N 28°31' W 116°06'15216.0
2018-Feb-08 16:00N 30°55' W 117°01'815.6
2018-Feb-08 15:30N 31°02' W 117°04'10015.4
2018-Feb-08 09:00N 32°37' W 117°41'815.4
2018-Feb-08 08:30N 32°44' W 117°45'815.5
2018-Feb-08 08:00N 32°51' W 117°49'815.3
2018-Feb-08 07:30N 32°58' W 117°53'5110.2
2018-Feb-08 02:30N 33°46' W 118°15'0 0.3
2018-Feb-08 02:00N 33°46' W 118°15'0 0.0
2018-Feb-08 01:29N 33°46' W 118°15'0 0.0
2018-Feb-08 00:59N 33°46' W 118°15'0 0.0
2018-Feb-08 00:29N 33°46' W 118°15'0 0.0
2018-Feb-07 23:59N 33°46' W 118°15'0 0.0
2018-Feb-07 23:28N 33°46' W 118°15'0 0.0
2018-Feb-07 22:58N 33°46' W 118°15'0 0.0
2018-Feb-07 22:28N 33°46' W 118°15'0 0.0
2018-Feb-07 21:58N 33°46' W 118°15'0 0.0
2018-Feb-07 21:30N 33°46' W 118°15'24 2.0
2018-Feb-07 09:30N 33°24' W 118°05'4 8.6
2018-Feb-07 09:00N 33°20' W 118°02'3 5.3
2018-Feb-07 08:25N 33°17' W 118°01'2 3.8
2018-Feb-07 07:59N 33°15' W 118°00'613.2
2018-Feb-07 07:30N 33°10' W 117°57'1313.3
2018-Feb-07 06:31N 32°58' W 117°51'1313.2
2018-Feb-07 05:30N 32°45' W 117°45'613.0
2018-Feb-07 05:00N 32°39' W 117°42'713.2
2018-Feb-07 04:30N 32°33' W 117°39'713.3
2018-Feb-07 04:00N 32°27' W 117°36'713.2
2018-Feb-07 03:30N 32°21' W 117°34'7113.9
2018-Feb-06 22:21N 31°13' W 117°08'11314.2
2018-Feb-06 14:24N 29°26' W 116°27'613.9
2018-Feb-06 13:59N 29°20' W 116°25'5114.0
2018-Feb-06 10:20N 28°32' W 116°06'514.5
2018-Feb-06 10:00N 28°27' W 116°05'4914.0
2018-Feb-06 06:32N 27°45' W 115°37'013.5
2018-Feb-06 06:30N 27°45' W 115°37'  
Track history (hours):
 
Tides and Currents Weather Stations Pressure Air Temp Water Temp Dewpoint Dewpoint Depression Visibility Wind Speed Wind Dir Waves Ship Positions

Cardiff Trader

Last reported at 2018-Feb-09 01:30 UTC. Time now 2018-Feb-23 12:42 UTC.
Position N 28°31' W 116°06'.
Warning: this ship's position is 14 days out of date.

Length 208 m; draft 8.1 m.

Type: Ship (hazmat cat A). MMSI: 229469000.

Date/timePositionNaut miles runAvg speedWind from/ knotsBaromVisibWave heightAir tempDewpointWater temp
2018-Feb-09 01:30N 28°31' W 116°06'15216.0
2018-Feb-08 16:00N 30°55' W 117°01'815.6
2018-Feb-08 15:30N 31°02' W 117°04'10015.4
2018-Feb-08 09:00N 32°37' W 117°41'815.4
2018-Feb-08 08:30N 32°44' W 117°45'815.5
2018-Feb-08 08:00N 32°51' W 117°49'815.3
2018-Feb-08 07:30N 32°58' W 117°53'5110.2
2018-Feb-08 02:30N 33°46' W 118°15'0 0.3
2018-Feb-08 02:00N 33°46' W 118°15'0 0.0
2018-Feb-08 01:29N 33°46' W 118°15'0 0.0
2018-Feb-08 00:59N 33°46' W 118°15'0 0.0
2018-Feb-08 00:29N 33°46' W 118°15'0 0.0
2018-Feb-07 23:59N 33°46' W 118°15'0 0.0
2018-Feb-07 23:28N 33°46' W 118°15'0 0.0
2018-Feb-07 22:58N 33°46' W 118°15'0 0.0
2018-Feb-07 22:28N 33°46' W 118°15'0 0.0
2018-Feb-07 21:58N 33°46' W 118°15'0 0.0
2018-Feb-07 21:30N 33°46' W 118°15'24 2.0
2018-Feb-07 09:30N 33°24' W 118°05'4 8.6
2018-Feb-07 09:00N 33°20' W 118°02'3 5.3
2018-Feb-07 08:25N 33°17' W 118°01'2 3.8
2018-Feb-07 07:59N 33°15' W 118°00'613.2
2018-Feb-07 07:30N 33°10' W 117°57'1313.3
2018-Feb-07 06:31N 32°58' W 117°51'1313.2
2018-Feb-07 05:30N 32°45' W 117°45'613.0
2018-Feb-07 05:00N 32°39' W 117°42'713.2
2018-Feb-07 04:30N 32°33' W 117°39'713.3
2018-Feb-07 04:00N 32°27' W 117°36'713.2
2018-Feb-07 03:30N 32°21' W 117°34'7113.9
2018-Feb-06 22:21N 31°13' W 117°08'11314.2
2018-Feb-06 14:24N 29°26' W 116°27'613.9
2018-Feb-06 13:59N 29°20' W 116°25'5114.0
2018-Feb-06 10:20N 28°32' W 116°06'514.5
2018-Feb-06 10:00N 28°27' W 116°05'4914.0
2018-Feb-06 06:32N 27°45' W 115°37'013.5
2018-Feb-06 06:30N 27°45' W 115°37'  

Dump ship's entire track history